createdAt,value
2022-12-18T00:00:09.961Z,99670.78
2022-12-18T00:02:38.398Z,99673.13
2022-12-18T00:05:07.741Z,99647.38
2022-12-18T00:07:36.015Z,99653.88
2022-12-18T00:10:04.286Z,99651.88
2022-12-18T00:12:32.560Z,99648.56
2022-12-18T00:15:01.052Z,99644.81
2022-12-18T00:17:30.646Z,99634.97
2022-12-18T00:19:58.998Z,99619.66
2022-12-18T00:22:27.353Z,99616.16
2022-12-18T00:24:55.516Z,99617.22
2022-12-18T00:27:23.709Z,99610.63
2022-12-18T00:29:53.297Z,99604.59
2022-12-18T00:32:21.521Z,99596.41
2022-12-18T00:34:51.105Z,99566.13
2022-12-18T00:37:20.442Z,99578.22
2022-12-18T00:39:50.769Z,99584.31
2022-12-18T00:42:36.981Z,99583.19
2022-12-18T00:45:12.046Z,99578.22
2022-12-18T00:47:41.518Z,99576.53
2022-12-18T00:50:12.410Z,99571.88
2022-12-18T00:52:44.039Z,99570.63
2022-12-18T00:55:12.537Z,99562.31
2022-12-18T00:57:42.276Z,99566.69
2022-12-18T01:00:13.891Z,99549.00
2022-12-18T01:02:42.861Z,99529.16
2022-12-18T01:05:14.271Z,99531.34
2022-12-18T01:07:42.925Z,99524.44
2022-12-18T01:10:12.805Z,99517.09
2022-12-18T01:12:41.357Z,99521.03
2022-12-18T01:15:10.405Z,99524.38
2022-12-18T01:17:38.588Z,99507.41
2022-12-18T01:20:07.670Z,99504.25
2022-12-18T01:22:37.544Z,99514.16
2022-12-18T01:25:07.095Z,99509.16
2022-12-18T01:27:36.373Z,99508.78
2022-12-18T01:30:05.268Z,99496.13
2022-12-18T01:32:34.466Z,99500.06
2022-12-18T01:35:02.734Z,99489.84
2022-12-18T01:37:31.365Z,99505.69
2022-12-18T01:40:01.029Z,99490.25
2022-12-18T01:42:29.332Z,99482.69
2022-12-18T01:45:03.627Z,99476.00
2022-12-18T01:47:38.773Z,99475.19
2022-12-18T01:50:10.073Z,99480.25
2022-12-18T01:52:39.011Z,99471.44
2022-12-18T01:55:10.181Z,99484.34
2022-12-18T01:57:39.012Z,99472.53
2022-12-18T02:00:09.860Z,99477.19
2022-12-18T02:02:38.923Z,99479.97
2022-12-18T02:05:08.665Z,99465.75
2022-12-18T02:07:45.457Z,99478.91
2022-12-18T02:10:21.765Z,99467.84
2022-12-18T02:12:53.514Z,99453.00
2022-12-18T02:15:26.598Z,99462.56
2022-12-18T02:17:58.652Z,99446.25
2022-12-18T02:20:31.872Z,99450.44
2022-12-18T02:23:08.867Z,99449.72
2022-12-18T02:26:09.288Z,99453.06
2022-12-18T02:28:42.125Z,99441.78
2022-12-18T02:31:13.859Z,99438.47
2022-12-18T02:33:43.297Z,99447.47
2022-12-18T02:36:12.247Z,99452.66
2022-12-18T02:38:41.324Z,99451.41
2022-12-18T02:41:10.904Z,99453.28
2022-12-18T02:43:39.431Z,99445.50
2022-12-18T02:46:26.046Z,99447.19
2022-12-18T02:48:55.736Z,99455.19
2022-12-18T02:51:29.893Z,99461.91
2022-12-18T02:54:01.945Z,99479.47
2022-12-18T02:56:37.448Z,99472.13
2022-12-18T02:59:08.841Z,99470.41
2022-12-18T03:01:41.630Z,99474.47
2022-12-18T03:04:15.039Z,99476.13
2022-12-18T03:06:43.567Z,99475.53
2022-12-18T03:09:23.944Z,99482.03
2022-12-18T03:12:14.744Z,99465.81
2022-12-18T03:14:44.515Z,99468.25
2022-12-18T03:17:16.317Z,99451.06
2022-12-18T03:19:46.277Z,99456.91
2022-12-18T03:22:15.229Z,99476.03
2022-12-18T03:24:44.076Z,99473.34
2022-12-18T03:27:16.977Z,99487.13
2022-12-18T03:29:48.182Z,99487.13
2022-12-18T03:32:20.025Z,99486.25
2022-12-18T03:34:51.833Z,99482.47
2022-12-18T03:37:20.122Z,99469.53
2022-12-18T03:39:48.307Z,99450.34
2022-12-18T03:42:20.514Z,99461.63
2022-12-18T03:44:59.206Z,99459.44
2022-12-18T03:47:30.025Z,99446.56
2022-12-18T03:50:01.733Z,99441.97
2022-12-18T03:52:33.340Z,99464.59
2022-12-18T03:55:02.768Z,99470.03
2022-12-18T03:57:34.265Z,99476.06
2022-12-18T04:00:07.704Z,99485.03
2022-12-18T04:02:37.450Z,99484.25
2022-12-18T04:05:07.831Z,99470.44
2022-12-18T04:07:36.329Z,99471.69
2022-12-18T04:10:06.608Z,99481.34
2022-12-18T04:12:36.190Z,99486.00
2022-12-18T04:15:04.536Z,99476.34
2022-12-18T04:17:33.033Z,99483.91
2022-12-18T04:20:01.315Z,99482.84
2022-12-18T04:22:29.557Z,99485.56
2022-12-18T04:24:57.813Z,99490.13
2022-12-18T04:27:26.500Z,99487.69
2022-12-18T04:29:56.117Z,99505.63
2022-12-18T04:32:24.447Z,99516.91
2022-12-18T04:34:52.747Z,99511.47
2022-12-18T04:37:21.444Z,99511.47
2022-12-18T04:39:49.724Z,99501.31
2022-12-18T04:42:17.940Z,99519.63
2022-12-18T04:44:46.219Z,99525.81
2022-12-18T04:47:15.950Z,99540.47
2022-12-18T04:49:44.157Z,99537.13
2022-12-18T04:52:12.417Z,99543.00
2022-12-18T04:54:40.755Z,99549.59
2022-12-18T04:57:08.957Z,99555.03
2022-12-18T04:59:37.252Z,99574.81
2022-12-18T05:02:05.768Z,99566.75
2022-12-18T05:04:35.931Z,99569.81
2022-12-18T05:07:04.282Z,99579.78
2022-12-18T05:09:32.952Z,99586.06
2022-12-18T05:12:01.201Z,99591.09
2022-12-18T05:14:30.483Z,99585.69
2022-12-18T05:17:01.052Z,99583.16
2022-12-18T05:19:29.541Z,99597.81
2022-12-18T05:21:59.318Z,99601.66
2022-12-18T05:24:27.710Z,99603.31
2022-12-18T05:26:55.981Z,99610.63
2022-12-18T05:29:24.457Z,99606.69
2022-12-18T05:31:52.757Z,99604.16
2022-12-18T05:34:21.157Z,99606.16
2022-12-18T05:36:49.460Z,99616.22
2022-12-18T05:39:18.985Z,99625.06
2022-12-18T05:41:47.813Z,99628.81
2022-12-18T05:44:16.099Z,99626.72
2022-12-18T05:46:44.388Z,99632.16
2022-12-18T05:49:12.644Z,99635.94
2022-12-18T05:51:40.969Z,99630.94
2022-12-18T05:54:09.650Z,99630.09
2022-12-18T05:56:44.133Z,99638.19
2022-12-18T05:59:15.603Z,99646.84
2022-12-18T06:01:44.414Z,99644.34
2022-12-18T06:04:12.767Z,99641.84
2022-12-18T06:06:41.220Z,99660.63
2022-12-18T06:09:10.683Z,99658.31
2022-12-18T06:11:40.877Z,99661.03
2022-12-18T06:14:10.010Z,99673.34
2022-12-18T06:16:38.295Z,99671.75
2022-12-18T06:19:07.821Z,99687.91
2022-12-18T06:21:36.444Z,99685.97
2022-12-18T06:24:04.735Z,99673.41
2022-12-18T06:26:32.919Z,99674.38
2022-12-18T06:29:02.635Z,99677.41
2022-12-18T06:31:30.936Z,99666.97
2022-12-18T06:33:59.206Z,99692.47
2022-12-18T06:36:27.438Z,99694.13
2022-12-18T06:38:55.653Z,99692.06
2022-12-18T06:41:24.025Z,99692.72
2022-12-18T06:43:56.784Z,99709.69
2022-12-18T06:46:27.437Z,99724.72
2022-12-18T06:48:55.773Z,99734.78
2022-12-18T06:51:25.073Z,99733.09
2022-12-18T06:53:53.334Z,99741.25
2022-12-18T06:56:21.645Z,99743.09
2022-12-18T06:58:49.896Z,99758.56
2022-12-18T07:01:18.503Z,99762.97
2022-12-18T07:03:48.418Z,99775.66
2022-12-18T07:06:17.899Z,99773.19
2022-12-18T07:08:46.265Z,99782.41
2022-12-18T07:11:15.199Z,99790.19
2022-12-18T07:13:43.759Z,99782.72
2022-12-18T07:16:20.856Z,99771.63
2022-12-18T07:18:51.729Z,99779.53
2022-12-18T07:21:21.282Z,99785.38
2022-12-18T07:23:49.668Z,99775.59
2022-12-18T07:26:19.577Z,99790.47
2022-12-18T07:28:47.742Z,99800.28
2022-12-18T07:31:18.070Z,99810.09
2022-12-18T07:33:47.469Z,99816.78
2022-12-18T07:36:17.106Z,99826.75
2022-12-18T07:38:45.552Z,99826.69
2022-12-18T07:41:14.905Z,99818.78
2022-12-18T07:43:43.837Z,99837.72
2022-12-18T07:46:14.884Z,99840.69
2022-12-18T07:48:45.234Z,99841.09
2022-12-18T07:51:21.037Z,99843.59
2022-12-18T07:53:52.104Z,99842.75
2022-12-18T07:56:30.498Z,99837.28
2022-12-18T07:59:00.208Z,99832.28
2022-12-18T08:01:29.075Z,99853.25
2022-12-18T08:03:57.537Z,99855.34
2022-12-18T08:06:27.524Z,99860.25
2022-12-18T08:08:56.569Z,99853.78
2022-12-18T08:11:31.079Z,99848.94
2022-12-18T08:14:00.147Z,99858.16
2022-12-18T08:16:28.478Z,99854.34
2022-12-18T08:18:56.964Z,99865.63
2022-12-18T08:21:28.307Z,99857.97
2022-12-18T08:23:59.735Z,99879.00
2022-12-18T08:26:29.804Z,99880.00
2022-12-18T08:28:59.009Z,99900.38
2022-12-18T08:31:28.113Z,99902.84
2022-12-18T08:33:56.706Z,99912.34
2022-12-18T08:36:27.568Z,99911.38
2022-12-18T08:38:56.162Z,99926.03
2022-12-18T08:41:24.662Z,99922.66
2022-12-18T08:44:10.123Z,99930.38
2022-12-18T08:46:40.038Z,99942.34
2022-12-18T08:49:08.945Z,99939.59
2022-12-18T08:51:40.241Z,99945.09
2022-12-18T08:54:09.058Z,99944.94
2022-12-18T08:56:37.638Z,99934.63
2022-12-18T08:59:06.691Z,99935.59
2022-12-18T09:01:35.518Z,99944.81
2022-12-18T09:04:04.054Z,99954.13
2022-12-18T09:06:33.481Z,99945.25
2022-12-18T09:09:03.328Z,99951.34
2022-12-18T09:11:32.413Z,99948.63
2022-12-18T09:14:02.447Z,99960.72
2022-12-18T09:16:33.007Z,99956.81
2022-12-18T09:19:02.277Z,99949.50
2022-12-18T09:21:32.699Z,99972.97
2022-12-18T09:24:08.552Z,99971.69
2022-12-18T09:26:37.159Z,99976.13
2022-12-18T09:29:05.417Z,99980.47
2022-12-18T09:31:33.658Z,99984.56
2022-12-18T09:34:02.214Z,99975.78
2022-12-18T09:36:30.457Z,99971.63
2022-12-18T09:39:00.159Z,99977.56
2022-12-18T09:41:42.038Z,99977.03
2022-12-18T09:44:18.060Z,99981.25
2022-12-18T09:46:48.667Z,99976.69
2022-12-18T09:49:19.027Z,99991.81
2022-12-18T09:51:50.020Z,99991.38
2022-12-18T09:54:22.817Z,100009.03
2022-12-18T09:56:52.813Z,100004.00
2022-12-18T09:59:25.921Z,100008.00
2022-12-18T10:01:54.416Z,100002.69
2022-12-18T10:04:22.789Z,100012.25
2022-12-18T10:06:56.103Z,100028.97
2022-12-18T10:09:31.063Z,100031.31
2022-12-18T10:12:08.685Z,100036.50
2022-12-18T10:14:43.923Z,100019.66
2022-12-18T10:17:20.164Z,100027.06
2022-12-18T10:19:53.986Z,100029.97
2022-12-18T10:22:32.148Z,100046.09
2022-12-18T10:25:06.416Z,100036.72
2022-12-18T10:27:36.497Z,100037.09
2022-12-18T10:30:15.711Z,100017.41
2022-12-18T10:32:44.039Z,100038.66
2022-12-18T10:35:19.509Z,100031.28
2022-12-18T10:38:09.612Z,100039.81
2022-12-18T10:40:52.178Z,100040.50
2022-12-18T10:43:26.138Z,100037.53
2022-12-18T10:46:16.744Z,100035.84
2022-12-18T10:48:56.441Z,100052.63
2022-12-18T10:51:27.194Z,100061.88
2022-12-18T10:54:00.202Z,100063.19
2022-12-18T10:56:31.768Z,100071.56
2022-12-18T10:59:05.160Z,100081.84
2022-12-18T11:01:49.637Z,100074.09
2022-12-18T11:04:20.745Z,100105.53
2022-12-18T11:06:57.399Z,100109.09
2022-12-18T11:09:27.453Z,100116.03
2022-12-18T11:11:57.389Z,100109.75
2022-12-18T11:14:30.984Z,100120.00
2022-12-18T11:19:55.247Z,100115.00
2022-12-18T11:22:25.635Z,100118.56
2022-12-18T11:25:30.351Z,100108.28
2022-12-18T11:27:50.936Z,100104.50
2022-12-18T11:30:25.917Z,100125.25
2022-12-18T11:32:57.017Z,100115.81
2022-12-18T11:35:37.269Z,100135.31
2022-12-18T11:38:12.296Z,100134.06
2022-12-18T11:40:43.211Z,100129.00
2022-12-18T11:55:02.895Z,100161.31
2022-12-18T11:57:38.004Z,100164.69
2022-12-18T12:00:13.898Z,100174.75
2022-12-18T12:03:03.090Z,100173.28
2022-12-18T12:05:40.953Z,100173.50
2022-12-18T12:08:13.992Z,100187.56
2022-12-18T12:10:52.561Z,100194.91
2022-12-18T12:13:28.570Z,100161.78
2022-12-18T12:16:06.117Z,100196.78
2022-12-18T12:18:43.536Z,100203.28
2022-12-18T12:21:16.096Z,100209.56
2022-12-18T12:23:48.444Z,100203.50
2022-12-18T12:26:24.193Z,100214.63
2022-12-18T12:29:03.977Z,100211.25
2022-12-18T12:31:44.394Z,100220.47
2022-12-18T12:34:18.937Z,100200.34
2022-12-18T12:37:03.596Z,100220.91
2022-12-18T12:39:34.320Z,100228.47
2022-12-18T12:42:21.864Z,100227.59
2022-12-18T12:47:44.304Z,100239.53
2022-12-18T12:50:16.828Z,100250.66
2022-12-18T12:52:48.605Z,100249.44
2022-12-18T12:55:19.713Z,100258.22
2022-12-18T12:58:00.264Z,100257.38
2022-12-18T13:00:32.292Z,100266.19
2022-12-18T13:03:05.550Z,100267.84
2022-12-18T13:05:37.080Z,100280.41
2022-12-18T13:08:07.701Z,100273.88
2022-12-18T13:10:37.456Z,100289.47
2022-12-18T13:13:09.027Z,100298.06
2022-12-18T13:13:43.304Z,100230.50
2022-12-18T13:15:41.281Z,100295.78
2022-12-18T13:18:21.562Z,100302.69
2022-12-18T13:20:55.237Z,100309.56
2022-12-18T13:23:33.939Z,100312.69
2022-12-18T13:26:33.108Z,100320.28
2022-12-18T13:29:07.413Z,100309.75
2022-12-18T13:32:02.940Z,100321.97
2022-12-18T13:34:33.521Z,100324.44
2022-12-18T13:37:35.118Z,100330.75
2022-12-18T13:40:03.509Z,100348.38
2022-12-18T13:42:59.742Z,100354.13
2022-12-18T13:45:46.098Z,100350.84
2022-12-18T13:48:26.878Z,100360.06
2022-12-18T13:50:59.433Z,100354.13
2022-12-18T13:53:30.436Z,100376.59
2022-12-18T13:55:59.415Z,100374.34
2022-12-18T13:58:27.603Z,100381.94
2022-12-18T14:01:00.473Z,100383.56
2022-12-18T14:03:31.657Z,100394.47
2022-12-18T14:06:06.831Z,100397.44
2022-12-18T14:08:40.066Z,100397.59
2022-12-18T14:11:08.536Z,100406.13
2022-12-18T14:13:40.363Z,100408.44
2022-12-18T14:16:10.465Z,100420.59
2022-12-18T14:18:45.938Z,100415.84
2022-12-18T14:21:24.156Z,100416.03
2022-12-18T14:24:05.822Z,100422.34
2022-12-18T14:26:34.656Z,100425.88
2022-12-18T14:29:12.311Z,100427.09
2022-12-18T14:31:42.606Z,100436.22
2022-12-18T14:34:17.754Z,100428.38
2022-12-18T14:36:55.069Z,100435.91
2022-12-18T14:39:23.317Z,100422.44
2022-12-18T14:41:52.184Z,100450.13
2022-12-18T14:44:22.391Z,100452.75
2022-12-18T14:46:53.114Z,100458.19
2022-12-18T14:49:26.032Z,100455.63
2022-12-18T14:51:56.527Z,100456.81
2022-12-18T14:54:30.392Z,100482.81
2022-12-18T14:57:02.117Z,100475.31
2022-12-18T14:59:31.183Z,100478.72
2022-12-18T15:02:06.879Z,100486.28
2022-12-18T15:04:36.956Z,100497.00
2022-12-18T15:07:16.071Z,100493.19
2022-12-18T15:09:46.427Z,100490.19
2022-12-18T15:12:27.869Z,100500.75
2022-12-18T15:14:56.152Z,100521.53
2022-12-18T15:17:26.856Z,100509.03
2022-12-18T15:20:01.541Z,100520.72
2022-12-18T15:22:33.329Z,100514.06
2022-12-18T15:25:01.919Z,100527.53
2022-12-18T15:27:33.509Z,100536.91
2022-12-18T15:30:19.549Z,100529.22
2022-12-18T15:32:50.189Z,100537.56
2022-12-18T15:35:22.793Z,100536.53
2022-12-18T15:37:51.075Z,100546.38
2022-12-18T15:40:21.361Z,100535.38
2022-12-18T15:43:08.043Z,100548.63
2022-12-18T15:45:36.339Z,100562.25
2022-12-18T15:48:11.410Z,100558.47
2022-12-18T15:50:39.597Z,100564.78
2022-12-18T15:53:08.246Z,100570.72
2022-12-18T15:56:05.653Z,100554.75
2022-12-18T15:58:36.580Z,100571.72
2022-12-18T16:01:05.015Z,100582.28
2022-12-18T16:03:35.857Z,100578.47
2022-12-18T16:06:04.332Z,100584.38
2022-12-18T16:08:32.944Z,100587.88
2022-12-18T16:11:01.257Z,100603.09
2022-12-18T16:13:29.479Z,100587.84
2022-12-18T16:15:57.799Z,100607.47
2022-12-18T16:18:26.249Z,100617.22
2022-12-18T16:20:55.864Z,100615.41
2022-12-18T16:23:24.150Z,100618.31
2022-12-18T16:25:52.870Z,100627.41
2022-12-18T16:28:21.090Z,100622.88
2022-12-18T16:30:49.613Z,100637.88
2022-12-18T16:33:18.007Z,100622.28
2022-12-18T16:35:55.461Z,100652.22
2022-12-18T16:38:23.722Z,100648.59
2022-12-18T16:41:09.701Z,100659.16
2022-12-18T16:43:38.239Z,100668.75
2022-12-18T16:46:06.940Z,100663.47
2022-12-18T16:48:35.222Z,100678.09
2022-12-18T16:51:07.001Z,100672.25
2022-12-18T16:53:36.277Z,100678.09
2022-12-18T16:56:05.025Z,100682.59
2022-12-18T16:58:34.221Z,100683.59
2022-12-18T17:01:03.336Z,100694.66
2022-12-18T17:03:34.582Z,100695.91
2022-12-18T17:06:05.974Z,100699.91
2022-12-18T17:08:34.397Z,100706.41
2022-12-18T17:11:06.905Z,100708.41
2022-12-18T17:13:35.269Z,100714.25
2022-12-18T17:16:05.241Z,100719.81
2022-12-18T17:18:33.900Z,100729.56
2022-12-18T17:21:02.580Z,100724.06
2022-12-18T17:23:32.149Z,100737.63
2022-12-18T17:26:02.944Z,100746.81
2022-12-18T17:28:31.329Z,100741.91
2022-12-18T17:30:59.537Z,100755.41
2022-12-18T17:33:27.890Z,100760.88
2022-12-18T17:35:56.198Z,100762.97
2022-12-18T17:38:26.547Z,100763.91
2022-12-18T17:40:56.387Z,100759.13
2022-12-18T17:43:24.593Z,100765.63
2022-12-18T17:45:52.837Z,100773.16
2022-12-18T17:48:21.144Z,100780.09
2022-12-18T17:50:49.408Z,100793.53
2022-12-18T17:53:17.641Z,100810.91
2022-12-18T17:55:46.192Z,100817.38
2022-12-18T17:58:15.724Z,100815.59
2022-12-18T18:00:43.994Z,100817.88
2022-12-18T18:03:12.545Z,100821.88
2022-12-18T18:05:40.977Z,100822.00
2022-12-18T18:08:09.440Z,100822.09
2022-12-18T18:10:39.327Z,100819.97
2022-12-18T18:13:25.167Z,100823.97
2022-12-18T18:15:58.629Z,100829.69
2022-12-18T18:18:26.910Z,100845.75
2022-12-18T18:20:55.107Z,100844.22
2022-12-18T18:23:23.558Z,100843.34
2022-12-18T18:25:51.772Z,100844.28
2022-12-18T18:28:21.319Z,100853.69
2022-12-18T18:30:49.964Z,100868.28
2022-12-18T18:33:19.932Z,100867.91
2022-12-18T18:35:55.272Z,100875.56
2022-12-18T18:38:23.738Z,100877.97
2022-12-18T18:41:00.118Z,100877.97
2022-12-18T18:43:28.574Z,100884.22
2022-12-18T18:45:57.653Z,100894.03
2022-12-18T18:48:28.031Z,100891.94
2022-12-18T18:50:58.733Z,100906.00
2022-12-18T18:53:27.263Z,100918.84
2022-12-18T18:56:26.427Z,100911.00
2022-12-18T18:58:44.056Z,100908.38
2022-12-18T19:01:14.099Z,100919.88
2022-12-18T19:03:45.814Z,100922.75
2022-12-18T19:06:16.420Z,100933.25
2022-12-18T19:08:46.570Z,100933.31
2022-12-18T19:11:36.492Z,100935.09
2022-12-18T19:14:06.740Z,100934.69
2022-12-18T19:16:35.834Z,100946.75
2022-12-18T19:19:05.948Z,100951.25
2022-12-18T19:21:34.747Z,100960.84
2022-12-18T19:24:03.685Z,100975.69
2022-12-18T19:26:31.892Z,100980.59
2022-12-18T19:29:02.618Z,100984.19
2022-12-18T19:31:35.657Z,100997.38
2022-12-18T19:34:07.814Z,100996.88
2022-12-18T19:36:38.571Z,101009.72
2022-12-18T19:39:10.530Z,101022.47
2022-12-18T19:41:39.630Z,101015.66
2022-12-18T19:44:08.670Z,101017.31
2022-12-18T19:46:38.303Z,101019.75
2022-12-18T19:49:11.655Z,101027.94
2022-12-18T19:51:45.553Z,101027.03
2022-12-18T19:54:16.908Z,101025.72
2022-12-18T19:56:46.627Z,101030.66
2022-12-18T19:59:15.439Z,101039.78
2022-12-18T20:01:43.729Z,101041.84
2022-12-18T20:04:13.533Z,101039.78
2022-12-18T20:06:49.188Z,101041.06
2022-12-18T20:09:17.874Z,101049.28
2022-12-18T20:11:48.600Z,101054.47
2022-12-18T20:14:22.495Z,101050.50
2022-12-18T20:16:52.315Z,101052.19
2022-12-18T20:19:23.208Z,101053.81
2022-12-18T20:21:51.361Z,101067.91
2022-12-18T20:24:19.574Z,101063.41
2022-12-18T20:26:49.644Z,101063.28
2022-12-18T20:29:17.848Z,101070.34
2022-12-18T20:31:46.106Z,101074.03
2022-12-18T20:34:14.380Z,101085.03
2022-12-18T20:36:44.520Z,101086.06
2022-12-18T20:39:13.619Z,101089.75
2022-12-18T20:41:42.703Z,101078.94
2022-12-18T20:44:22.699Z,101098.34
2022-12-18T20:46:53.806Z,101100.06
2022-12-18T20:49:22.087Z,101102.44
2022-12-18T20:51:56.554Z,101096.31
2022-12-18T20:54:26.428Z,101094.47
2022-12-18T20:56:54.812Z,101103.88
2022-12-18T20:59:23.389Z,101097.06
2022-12-18T21:01:52.281Z,101101.38
2022-12-18T21:04:20.795Z,101102.25
2022-12-18T21:07:01.894Z,101101.94
2022-12-18T21:09:37.768Z,101110.44
2022-12-18T21:12:25.641Z,101099.66
2022-12-18T21:14:54.882Z,101126.47
2022-12-18T21:17:23.132Z,101122.81
2022-12-18T21:19:51.432Z,101127.34
2022-12-18T21:22:20.172Z,101132.75
2022-12-18T21:24:50.025Z,101135.34
2022-12-18T21:27:18.325Z,101132.56
2022-12-18T21:29:47.234Z,101121.03
2022-12-18T21:32:16.056Z,101123.44
2022-12-18T21:34:48.105Z,101139.63
2022-12-18T21:37:16.998Z,101126.13
2022-12-18T21:39:45.288Z,101142.34
2022-12-18T21:42:32.084Z,101151.94
2022-12-18T21:45:00.698Z,101163.03
2022-12-18T21:47:28.899Z,101166.75
2022-12-18T21:49:57.141Z,101169.88
2022-12-18T21:52:31.524Z,101168.31
2022-12-18T21:55:09.629Z,101162.66
2022-12-18T21:57:40.389Z,101173.59
2022-12-18T22:00:18.866Z,101157.13
2022-12-18T22:02:49.654Z,101172.16
2022-12-18T22:05:37.177Z,101174.13
2022-12-18T22:08:07.035Z,101177.00
2022-12-18T22:10:35.510Z,101175.84
2022-12-18T22:13:05.860Z,101169.03
2022-12-18T22:15:34.895Z,101173.59
2022-12-18T22:18:03.269Z,101177.44
2022-12-18T22:20:31.622Z,101179.41
2022-12-18T22:23:04.268Z,101179.59
2022-12-18T22:25:54.864Z,101190.94
2022-12-18T22:28:41.813Z,101190.94
2022-12-18T22:31:09.990Z,101202.34
2022-12-18T22:33:38.164Z,101201.75
2022-12-18T22:36:07.924Z,101199.66
2022-12-18T22:38:36.108Z,101187.56
2022-12-18T22:41:04.253Z,101189.53
2022-12-18T22:43:33.876Z,101196.66
2022-12-18T22:46:05.531Z,101194.94
2022-12-18T22:48:33.781Z,101199.78
2022-12-18T22:51:01.929Z,101200.34
2022-12-18T22:53:30.382Z,101206.59
2022-12-18T22:56:02.412Z,101207.19
2022-12-18T22:58:30.648Z,101209.72
2022-12-18T23:01:00.135Z,101206.59
2022-12-18T23:03:28.479Z,101209.16
2022-12-18T23:06:04.184Z,101214.56
2022-12-18T23:08:32.421Z,101223.63
2022-12-18T23:11:00.556Z,101219.94
2022-12-18T23:13:29.457Z,101225.59
2022-12-18T23:15:57.767Z,101226.16
2022-12-18T23:18:27.989Z,101225.91
2022-12-18T23:20:56.106Z,101221.78
2022-12-18T23:23:24.485Z,101232.41
2022-12-18T23:25:52.575Z,101234.28
2022-12-18T23:28:20.792Z,101223.34
2022-12-18T23:30:49.199Z,101231.69
2022-12-18T23:33:17.459Z,101228.72
2022-12-18T23:35:47.235Z,101234.28
2022-12-18T23:38:15.459Z,101241.22
2022-12-18T23:40:43.613Z,101248.34
2022-12-18T23:43:13.849Z,101243.38
2022-12-18T23:45:42.104Z,101248.63
2022-12-18T23:48:10.241Z,101247.91
2022-12-18T23:50:39.537Z,101249.47
2022-12-18T23:53:09.261Z,101247.50
2022-12-18T23:55:41.145Z,101251.19
2022-12-18T23:58:10.914Z,101261.97
